Time;durP1;ratioP1;P1;durP2;ratioP2;P2;SDS_P1;SDS_P2;PMS_P1;PMS_P2;Temp;Humidity;BMP_temperature;BMP_pressure;BME280_temperature;BME280_humidity;BME280_pressure;Samples;Min_cycle;Max_cycle;Signal;HPM_P1;HPM_P2
2021/03/08 00:02:03;;;;;;;41.28;20.98;;;23.60;27.10;;;;;;6243487;27;83157;-67
2021/03/08 00:05:03;;;;;;;35.85;20.10;;;23.60;27.30;;;;;;6235529;27;83428;-67
2021/03/08 00:08:04;;;;;;;35.83;20.45;;;23.60;27.50;;;;;;6232072;28;83398;-67
2021/03/08 00:11:04;;;;;;;37.33;19.23;;;23.60;27.40;;;;;;6240694;28;84129;-67
2021/03/08 00:14:05;;;;;;;37.33;19.33;;;23.60;27.40;;;;;;6240328;28;84818;-67
2021/03/08 00:17:05;;;;;;;39.70;19.67;;;23.50;27.60;;;;;;6245712;28;83981;-67
2021/03/08 00:20:06;;;;;;;34.72;17.98;;;23.50;27.40;;;;;;6235720;28;83245;-68
2021/03/08 00:23:07;;;;;;;33.35;18.73;;;23.50;27.70;;;;;;6235291;28;84214;-67
2021/03/08 00:26:07;;;;;;;37.38;20.02;;;23.50;27.50;;;;;;6239602;28;83866;-68
2021/03/08 00:29:08;;;;;;;36.03;18.95;;;23.50;27.40;;;;;;6241602;28;83198;-68
2021/03/08 00:32:08;;;;;;;35.38;18.83;;;23.50;27.40;;;;;;6236612;27;83152;-68
2021/03/08 00:35:09;;;;;;;30.70;17.10;;;23.50;27.40;;;;;;6237960;28;83778;-67
2021/03/08 00:38:10;;;;;;;32.90;17.92;;;23.50;27.40;;;;;;6237263;28;83408;-67
2021/03/08 00:41:10;;;;;;;31.77;16.58;;;23.50;27.40;;;;;;6233329;28;83729;-68
2021/03/08 00:44:11;;;;;;;32.13;17.77;;;23.50;27.40;;;;;;6239553;28;83129;-68
2021/03/08 00:47:11;;;;;;;34.25;17.02;;;23.50;27.20;;;;;;6232526;28;83231;-67
2021/03/08 00:50:12;;;;;;;28.02;16.30;;;23.40;27.20;;;;;;6221307;28;85958;-67
2021/03/08 00:53:13;;;;;;;26.83;15.65;;;23.50;27.20;;;;;;6214527;28;86047;-68
2021/03/08 00:56:18;;;;;;;29.55;16.25;;;23.40;27.10;;;;;;6233138;28;84278;-67
2021/03/08 00:59:19;;;;;;;26.65;14.73;;;23.40;27.20;;;;;;6231049;28;84471;-66
2021/03/08 01:02:19;;;;;;;27.80;15.50;;;23.40;27.30;;;;;;6225891;28;85128;-68
2021/03/08 01:05:22;;;;;;;26.60;15.43;;;23.50;27.20;;;;;;6231851;28;85679;-68
2021/03/08 01:08:23;;;;;;;30.90;15.30;;;23.40;27.20;;;;;;6232311;27;82920;-67
2021/03/08 01:11:26;;;;;;;26.30;13.77;;;23.40;27.10;;;;;;6232624;28;83220;-67
2021/03/08 01:14:40;;;;;;;27.40;14.63;;;23.50;27.30;;;;;;6221137;28;85622;-68
2021/03/08 01:17:41;;;;;;;30.35;15.60;;;23.40;27.10;;;;;;6231139;28;83432;-68
2021/03/08 01:20:42;;;;;;;28.35;14.80;;;23.40;27.20;;;;;;6236602;28;83368;-67
2021/03/08 01:23:42;;;;;;;26.83;13.02;;;23.40;27.10;;;;;;6237054;28;83626;-67
2021/03/08 01:26:43;;;;;;;23.13;14.43;;;23.40;27.10;;;;;;6240645;28;83599;-67
2021/03/08 01:29:43;;;;;;;22.95;13.18;;;23.40;27.10;;;;;;6234288;28;85404;-68
2021/03/08 01:32:44;;;;;;;26.08;13.73;;;23.40;27.10;;;;;;6231376;28;83292;-68
2021/03/08 01:35:44;;;;;;;24.80;13.40;;;23.40;27.10;;;;;;6227068;27;83526;-68
2021/03/08 01:38:45;;;;;;;25.55;13.23;;;23.40;27.20;;;;;;6239738;28;83751;-67
2021/03/08 01:41:45;;;;;;;23.30;13.15;;;23.40;27.10;;;;;;6231915;27;83823;-67
2021/03/08 01:44:46;;;;;;;28.63;14.52;;;23.40;27.10;;;;;;6237878;28;83736;-68
2021/03/08 01:47:46;;;;;;;24.65;13.07;;;23.40;27.00;;;;;;6233335;28;83581;-68
2021/03/08 01:50:47;;;;;;;24.02;13.30;;;23.40;27.00;;;;;;6227861;28;85066;-68
2021/03/08 01:53:48;;;;;;;24.48;13.07;;;23.40;27.00;;;;;;6240809;28;83339;-68
2021/03/08 01:56:48;;;;;;;23.20;13.50;;;23.40;27.00;;;;;;6231507;28;82944;-68
2021/03/08 01:59:49;;;;;;;23.40;11.98;;;23.40;27.20;;;;;;6225896;28;83635;-67
2021/03/08 02:02:49;;;;;;;21.35;11.60;;;23.30;27.30;;;;;;6231913;27;83747;-67
2021/03/08 02:05:50;;;;;;;24.20;11.82;;;23.30;27.00;;;;;;6235383;28;83327;-67
2021/03/08 02:08:50;;;;;;;23.33;12.63;;;23.30;27.10;;;;;;6239667;27;84314;-68
2021/03/08 02:11:51;;;;;;;19.63;11.63;;;23.30;27.10;;;;;;6236378;28;83263;-67
2021/03/08 02:14:51;;;;;;;21.42;11.55;;;23.30;27.10;;;;;;6233366;28;83359;-67
2021/03/08 02:17:52;;;;;;;24.63;11.63;;;23.30;27.10;;;;;;6229863;28;86697;-69
2021/03/08 02:20:53;;;;;;;20.30;11.75;;;23.30;27.10;;;;;;6243110;28;83871;-69
2021/03/08 02:23:53;;;;;;;21.25;11.82;;;23.30;27.10;;;;;;6236544;28;83466;-68
2021/03/08 02:26:54;;;;;;;21.20;12.20;;;23.30;27.10;;;;;;6248643;27;84382;-68
2021/03/08 02:29:55;;;;;;;24.25;11.75;;;23.30;27.10;;;;;;6241858;27;83775;-69
2021/03/08 02:32:55;;;;;;;19.95;11.75;;;23.30;27.10;;;;;;6240544;28;84483;-68
2021/03/08 02:35:56;;;;;;;19.98;10.85;;;23.30;27.10;;;;;;6238480;28;83908;-67
2021/03/08 02:38:56;;;;;;;20.45;11.05;;;23.40;27.20;;;;;;6234522;28;83415;-68
2021/03/08 02:41:57;;;;;;;19.50;11.43;;;23.30;27.20;;;;;;6244558;28;84902;-68
2021/03/08 02:44:57;;;;;;;18.58;11.18;;;23.40;27.30;;;;;;6248063;28;83695;-68
2021/03/08 02:47:58;;;;;;;17.23;10.38;;;23.40;27.40;;;;;;6245469;28;85397;-68
2021/03/08 02:50:58;;;;;;;19.10;10.38;;;23.30;27.40;;;;;;6249461;28;83596;-68
2021/03/08 02:53:59;;;;;;;17.33;10.38;;;23.40;27.60;;;;;;6250274;28;83350;-68
2021/03/08 02:56:59;;;;;;;16.75;10.20;;;23.40;27.60;;;;;;6239534;28;84191;-68
2021/03/08 03:00:00;;;;;;;15.45;9.05;;;23.40;27.60;;;;;;6237153;28;83150;-68
2021/03/08 03:03:01;;;;;;;18.05;9.70;;;23.40;27.60;;;;;;6241969;28;81786;-68
2021/03/08 03:06:01;;;;;;;14.82;9.20;;;23.40;27.70;;;;;;6249155;28;81098;-68
2021/03/08 03:09:02;;;;;;;16.35;9.57;;;23.40;27.70;;;;;;6246258;27;80491;-68
2021/03/08 03:12:02;;;;;;;15.40;9.68;;;23.30;27.60;;;;;;6242605;28;80800;-68
2021/03/08 03:15:03;;;;;;;16.70;9.88;;;23.40;27.70;;;;;;6212064;28;82998;-68
2021/03/08 03:18:03;;;;;;;21.08;9.85;;;23.40;27.70;;;;;;6240596;28;81448;-68
2021/03/08 03:21:04;;;;;;;17.92;9.20;;;23.30;27.70;;;;;;6251730;28;80637;-69
2021/03/08 03:24:04;;;;;;;15.80;9.15;;;23.30;27.70;;;;;;6237330;28;80701;-68
2021/03/08 03:27:05;;;;;;;15.68;9.43;;;23.30;27.70;;;;;;6246860;28;80492;-70
2021/03/08 03:30:05;;;;;;;18.27;10.13;;;23.30;27.70;;;;;;6252382;28;80832;-67
2021/03/08 03:33:06;;;;;;;18.35;9.68;;;23.30;27.70;;;;;;6243352;28;83292;-68
2021/03/08 03:36:06;;;;;;;14.05;8.35;;;23.30;27.70;;;;;;6218373;28;89510;-69
2021/03/08 03:39:07;;;;;;;16.30;8.75;;;23.30;27.70;;;;;;6252080;27;81480;-69
2021/03/08 03:42:07;;;;;;;15.38;9.82;;;23.30;27.60;;;;;;6243796;27;80953;-68
2021/03/08 03:45:08;;;;;;;15.15;8.85;;;23.30;27.70;;;;;;6238800;28;83157;-69
2021/03/08 03:48:08;;;;;;;15.38;8.27;;;23.30;27.70;;;;;;6247095;28;80184;-68
2021/03/08 03:51:09;;;;;;;14.55;8.35;;;23.30;27.70;;;;;;6242796;27;80387;-69
2021/03/08 03:54:09;;;;;;;14.82;8.77;;;23.30;27.70;;;;;;6245232;28;80431;-68
2021/03/08 03:57:10;;;;;;;14.43;8.57;;;23.30;27.70;;;;;;6252005;28;80892;-68
2021/03/08 04:00:10;;;;;;;13.70;8.15;;;23.30;27.70;;;;;;6238615;28;80435;-67
2021/03/08 04:03:11;;;;;;;16.13;9.07;;;23.30;27.70;;;;;;6240771;28;83088;-68
2021/03/08 04:06:11;;;;;;;14.00;9.52;;;23.30;27.70;;;;;;6235573;28;80463;-68
2021/03/08 04:09:12;;;;;;;14.88;8.25;;;23.30;27.70;;;;;;6239319;27;80980;-68
2021/03/08 04:12:13;;;;;;;13.00;8.73;;;23.30;27.70;;;;;;6243260;28;80762;-68
2021/03/08 04:15:13;;;;;;;14.07;9.10;;;23.20;27.70;;;;;;6240592;28;91307;-69
2021/03/08 04:18:14;;;;;;;10.57;7.38;;;23.30;28.20;;;;;;6233956;28;80863;-67
2021/03/08 04:21:14;;;;;;;15.80;8.20;;;23.30;27.50;;;;;;6242201;28;81594;-67
2021/03/08 04:24:15;;;;;;;11.95;8.35;;;23.30;27.40;;;;;;6241470;28;80401;-67
2021/03/08 04:27:15;;;;;;;13.77;8.65;;;23.30;27.30;;;;;;6223808;28;80392;-66
2021/03/08 04:30:16;;;;;;;16.48;8.65;;;23.30;27.20;;;;;;6248162;28;80755;-68
2021/03/08 04:33:16;;;;;;;13.30;8.00;;;23.40;27.00;;;;;;6246429;28;80449;-70
2021/03/08 04:36:17;;;;;;;14.45;8.40;;;23.40;26.80;;;;;;6246505;27;80596;-68
2021/03/08 04:39:17;;;;;;;14.68;8.77;;;23.50;27.10;;;;;;6247265;28;80865;-69
2021/03/08 04:42:18;;;;;;;13.50;8.32;;;23.50;27.30;;;;;;6242575;28;80901;-69
2021/03/08 04:45:18;;;;;;;12.02;7.70;;;23.60;27.20;;;;;;6244040;28;80573;-67
2021/03/08 04:48:19;;;;;;;16.23;7.93;;;23.60;27.10;;;;;;6244747;27;82806;-68
2021/03/08 04:51:19;;;;;;;12.75;7.72;;;23.60;27.50;;;;;;6243045;28;80610;-67
2021/03/08 04:54:20;;;;;;;12.43;7.68;;;23.60;27.60;;;;;;6232795;28;81354;-68
2021/03/08 04:57:21;;;;;;;14.77;8.60;;;23.70;27.50;;;;;;6235805;28;80613;-68
2021/03/08 05:00:21;;;;;;;13.57;8.07;;;23.70;27.50;;;;;;6229207;28;80398;-68
2021/03/08 05:03:22;;;;;;;13.25;7.63;;;23.80;27.60;;;;;;6218414;28;81629;-66
2021/03/08 05:06:22;;;;;;;13.75;7.72;;;23.80;27.70;;;;;;6242899;28;80585;-66
2021/03/08 05:09:23;;;;;;;13.43;8.30;;;23.80;27.50;;;;;;6244176;28;80905;-68
2021/03/08 05:12:23;;;;;;;11.43;7.63;;;23.80;27.40;;;;;;6229077;28;80439;-68
2021/03/08 05:15:24;;;;;;;13.77;7.93;;;23.80;27.30;;;;;;6239574;28;80740;-66
2021/03/08 05:18:24;;;;;;;11.45;7.45;;;23.80;27.20;;;;;;6244254;28;81067;-68
2021/03/08 05:21:25;;;;;;;13.75;8.00;;;23.80;27.20;;;;;;6240462;28;80619;-68
2021/03/08 05:24:26;;;;;;;15.35;8.90;;;23.80;27.10;;;;;;6245706;28;80681;-67
2021/03/08 05:27:26;;;;;;;12.88;8.23;;;23.80;27.00;;;;;;6244063;28;81860;-67
2021/03/08 05:30:27;;;;;;;12.98;8.43;;;23.80;26.90;;;;;;6223948;27;80761;-67
2021/03/08 05:33:28;;;;;;;13.45;7.97;;;23.80;26.90;;;;;;6248587;28;80841;-70
2021/03/08 05:36:28;;;;;;;14.52;8.70;;;23.80;27.20;;;;;;6247402;28;81190;-65
2021/03/08 05:39:29;;;;;;;15.10;8.48;;;23.80;27.10;;;;;;6247981;28;83530;-70
2021/03/08 05:42:29;;;;;;;13.23;8.40;;;23.80;27.20;;;;;;6238168;28;81674;-71
2021/03/08 05:45:30;;;;;;;14.82;8.63;;;23.80;27.50;;;;;;6244104;28;80971;-67
2021/03/08 05:48:30;;;;;;;147.23;57.58;;;23.90;27.60;;;;;;6246614;28;81000;-67
2021/03/08 05:51:31;;;;;;;320.42;132.15;;;23.80;28.00;;;;;;6243486;28;84449;-67
2021/03/08 05:54:31;;;;;;;491.15;191.82;;;23.80;28.10;;;;;;6233857;28;85732;-67
2021/03/08 05:57:32;;;;;;;539.88;228.40;;;23.80;28.30;;;;;;6225852;28;85800;-67
2021/03/08 06:00:32;;;;;;;332.33;128.85;;;23.80;28.30;;;;;;6219350;27;86975;-66
2021/03/08 06:03:33;;;;;;;640.80;288.10;;;23.80;28.20;;;;;;6230268;28;87798;-67
2021/03/08 06:06:33;;;;;;;651.88;303.95;;;23.80;28.50;;;;;;6232477;28;85892;-68
2021/03/08 06:09:34;;;;;;;556.88;240.25;;;23.80;28.60;;;;;;6237403;28;86160;-68
2021/03/08 06:12:34;;;;;;;467.83;185.55;;;23.90;28.60;;;;;;6247176;28;86101;-68
2021/03/08 06:15:35;;;;;;;399.73;155.40;;;23.90;28.00;;;;;;6239803;28;85981;-68
2021/03/08 06:18:36;;;;;;;352.90;136.85;;;23.90;27.90;;;;;;6236364;28;86520;-68
2021/03/08 06:21:36;;;;;;;279.90;117.57;;;23.90;28.10;;;;;;6240881;28;85861;-68
2021/03/08 06:24:37;;;;;;;288.95;109.78;;;23.90;28.00;;;;;;6241992;28;85977;-68
2021/03/08 06:27:38;;;;;;;248.45;98.90;;;23.90;29.00;;;;;;6232121;28;86382;-68
2021/03/08 06:30:38;;;;;;;221.48;90.63;;;23.80;28.60;;;;;;6240782;28;86581;-68
2021/03/08 06:33:39;;;;;;;201.60;82.57;;;23.80;29.10;;;;;;6244134;27;83264;-69
2021/03/08 06:36:39;;;;;;;194.13;76.53;;;23.90;29.50;;;;;;6248770;28;84104;-71
2021/03/08 06:39:40;;;;;;;163.73;69.63;;;23.80;29.90;;;;;;6244686;28;83194;-69
2021/03/08 06:42:40;;;;;;;171.85;68.13;;;23.80;30.00;;;;;;6236206;28;83280;-69
2021/03/08 06:45:41;;;;;;;159.82;60.88;;;23.80;30.20;;;;;;6242675;28;83220;-68
2021/03/08 06:48:42;;;;;;;149.60;61.33;;;23.80;30.00;;;;;;6237751;28;83061;-68
2021/03/08 06:51:43;;;;;;;135.57;58.20;;;23.90;29.80;;;;;;6236547;28;83184;-67
2021/03/08 06:54:43;;;;;;;123.03;50.88;;;23.90;30.00;;;;;;6237530;28;82993;-66
2021/03/08 06:57:44;;;;;;;113.40;49.67;;;23.90;29.50;;;;;;6215353;28;83864;-66
2021/03/08 07:00:44;;;;;;;98.32;45.97;;;23.80;29.70;;;;;;6227475;27;85304;-67
2021/03/08 07:03:45;;;;;;;104.10;42.63;;;23.80;29.30;;;;;;6231360;28;83804;-66
2021/03/08 07:06:45;;;;;;;96.38;40.88;;;23.80;29.50;;;;;;6242726;28;83831;-68
2021/03/08 07:09:46;;;;;;;85.85;36.20;;;23.80;29.70;;;;;;6239158;28;83938;-69
2021/03/08 07:12:46;;;;;;;78.97;34.65;;;23.90;30.10;;;;;;6231505;28;83301;-69
2021/03/08 07:15:47;;;;;;;78.50;32.60;;;23.80;30.20;;;;;;6241058;28;83571;-72
2021/03/08 07:18:47;;;;;;;79.30;32.90;;;23.80;30.30;;;;;;6238387;28;83298;-75
2021/03/08 07:21:48;;;;;;;72.30;30.15;;;23.80;30.30;;;;;;6232800;28;83564;-68
2021/03/08 07:24:48;;;;;;;70.88;29.85;;;23.80;30.00;;;;;;6243785;28;83615;-68
2021/03/08 07:27:49;;;;;;;63.40;28.17;;;23.70;30.70;;;;;;6235378;28;83274;-66
2021/03/08 07:30:49;;;;;;;61.63;28.08;;;23.70;30.00;;;;;;6243812;27;84106;-65
2021/03/08 07:33:50;;;;;;;53.20;24.85;;;23.70;30.40;;;;;;6239642;28;83723;-70
2021/03/08 07:36:50;;;;;;;53.15;22.77;;;23.70;29.70;;;;;;6239252;28;83841;-68
2021/03/08 07:39:51;;;;;;;54.53;23.90;;;23.60;30.00;;;;;;6233169;28;83292;-70
2021/03/08 07:42:51;;;;;;;50.35;23.58;;;23.60;30.00;;;;;;6226690;28;84826;-66
2021/03/08 07:45:52;;;;;;;50.80;22.35;;;23.60;29.50;;;;;;6243737;28;83214;-69
2021/03/08 07:48:53;;;;;;;50.70;22.95;;;23.60;29.90;;;;;;6245406;28;83739;-70
2021/03/08 07:51:53;;;;;;;44.33;20.75;;;23.60;30.30;;;;;;6238526;28;83315;-69
2021/03/08 07:54:54;;;;;;;44.85;21.00;;;23.60;30.10;;;;;;6242106;28;83347;-69
2021/03/08 07:57:56;;;;;;;46.05;20.60;;;23.50;30.00;;;;;;6231641;28;84189;-69
2021/03/08 08:00:56;;;;;;;38.95;18.38;;;23.60;31.30;;;;;;6233930;27;84593;-69
2021/03/08 08:03:57;;;;;;;44.22;18.20;;;23.50;30.10;;;;;;6239858;28;84048;-61
2021/03/08 08:06:57;;;;;;;34.75;17.05;;;23.50;31.50;;;;;;6210839;27;84039;-70
2021/03/08 08:09:58;;;;;;;32.80;17.42;;;23.50;31.20;;;;;;6235935;28;85137;-67
2021/03/08 08:12:58;;;;;;;34.95;16.38;;;23.50;31.10;;;;;;6221171;28;82947;-69
2021/03/08 08:15:59;;;;;;;30.20;15.38;;;23.50;31.60;;;;;;6244688;28;83694;-68
2021/03/08 08:19:00;;;;;;;29.15;15.30;;;23.50;31.30;;;;;;6240162;28;83962;-69
2021/03/08 08:22:00;;;;;;;29.25;15.15;;;23.50;31.10;;;;;;6230662;28;83201;-70
2021/03/08 08:25:01;;;;;;;25.95;13.77;;;23.50;31.30;;;;;;6232156;28;83485;-68
2021/03/08 08:28:01;;;;;;;32.20;14.57;;;23.50;31.30;;;;;;6238482;28;83140;-68
2021/03/08 08:31:02;;;;;;;30.05;13.98;;;23.50;31.00;;;;;;6237376;27;84204;-68
2021/03/08 08:34:02;;;;;;;27.67;13.68;;;23.50;30.80;;;;;;6244463;28;83378;-69
2021/03/08 08:37:03;;;;;;;23.35;13.02;;;23.50;31.30;;;;;;6230880;28;84342;-70
2021/03/08 08:40:03;;;;;;;26.33;12.35;;;23.60;32.60;;;;;;6235865;27;83578;-69
2021/03/08 08:43:04;;;;;;;21.27;11.05;;;23.60;31.80;;;;;;6243268;28;83549;-68
2021/03/08 08:46:04;;;;;;;20.52;11.70;;;23.60;31.80;;;;;;6236818;28;84012;-69
2021/03/08 08:49:05;;;;;;;23.00;11.98;;;23.60;31.60;;;;;;6234640;28;83382;-70
2021/03/08 08:52:06;;;;;;;26.05;11.98;;;23.60;32.30;;;;;;6240265;28;83358;-69
2021/03/08 08:55:06;;;;;;;24.45;12.18;;;23.60;33.90;;;;;;6238581;28;83334;-71
2021/03/08 08:58:07;;;;;;;21.38;12.20;;;23.60;35.20;;;;;;6236990;28;84052;-69
2021/03/08 09:01:07;;;;;;;24.13;10.90;;;23.60;32.70;;;;;;6236533;28;83448;-68
2021/03/08 09:04:09;;;;;;;21.38;10.68;;;23.60;32.50;;;;;;6233839;28;83705;-69
2021/03/08 09:07:11;;;;;;;20.00;10.25;;;23.60;32.00;;;;;;6234782;28;83333;-72
2021/03/08 09:10:11;;;;;;;19.45;9.50;;;23.70;31.90;;;;;;6239850;27;83382;-72
2021/03/08 09:13:12;;;;;;;20.77;9.55;;;23.70;32.40;;;;;;6225423;28;83177;-70
2021/03/08 09:16:12;;;;;;;16.75;9.05;;;23.70;32.20;;;;;;6246572;28;81051;-69
2021/03/08 09:19:13;;;;;;;17.98;8.65;;;23.80;32.10;;;;;;6242417;27;81511;-72
2021/03/08 09:22:13;;;;;;;18.13;8.73;;;23.80;32.30;;;;;;6241816;28;80929;-70
2021/03/08 09:25:14;;;;;;;14.30;7.75;;;23.80;32.10;;;;;;6240006;28;80980;-68
2021/03/08 09:28:14;;;;;;;13.20;7.45;;;23.90;31.60;;;;;;6242576;28;80649;-69
2021/03/08 09:31:15;;;;;;;14.30;6.85;;;23.90;31.40;;;;;;6247023;28;81006;-68
2021/03/08 09:34:15;;;;;;;16.50;6.70;;;23.90;31.60;;;;;;6244711;27;81306;-68
2021/03/08 09:37:16;;;;;;;46.97;14.95;;;23.90;33.00;;;;;;6232123;28;82734;-69
2021/03/08 09:40:17;;;;;;;112.57;26.60;;;24.00;34.40;;;;;;6245260;28;83174;-70
2021/03/08 09:43:17;;;;;;;51.97;15.88;;;24.00;34.50;;;;;;6231601;28;84535;-70
2021/03/08 09:46:18;;;;;;;81.07;23.63;;;24.00;32.40;;;;;;6232248;28;83067;-68
2021/03/08 09:49:18;;;;;;;88.70;22.23;;;24.00;33.80;;;;;;6232774;28;83422;-69
2021/03/08 09:52:19;;;;;;;109.38;28.00;;;24.10;34.50;;;;;;6236446;28;83366;-69
2021/03/08 09:55:19;;;;;;;112.40;29.73;;;24.10;34.90;;;;;;6241553;28;85558;-69
2021/03/08 09:58:20;;;;;;;121.35;33.25;;;24.10;35.30;;;;;;6233504;28;83121;-71
2021/03/08 10:01:21;;;;;;;99.43;29.83;;;24.10;34.10;;;;;;6223395;28;83563;-70
2021/03/08 10:04:21;;;;;;;134.77;39.28;;;24.10;32.90;;;;;;6239773;28;83344;-69
2021/03/08 10:07:22;;;;;;;183.23;47.03;;;24.10;35.20;;;;;;6218645;28;85914;-71
2021/03/08 10:10:22;;;;;;;131.45;37.90;;;24.20;35.30;;;;;;6237959;28;83218;-68
2021/03/08 10:13:23;;;;;;;135.80;37.35;;;24.20;33.80;;;;;;6226136;28;83753;-68
2021/03/08 10:16:23;;;;;;;119.90;34.03;;;24.10;32.90;;;;;;6236647;28;83585;-67
2021/03/08 10:19:24;;;;;;;115.35;34.83;;;24.10;32.50;;;;;;6238680;28;83482;-67
2021/03/08 10:22:24;;;;;;;121.68;34.03;;;24.10;33.30;;;;;;6242174;28;84034;-69
2021/03/08 10:25:25;;;;;;;115.35;33.70;;;24.20;33.30;;;;;;6201543;28;84006;-67
2021/03/08 10:28:26;;;;;;;111.25;32.33;;;24.20;35.30;;;;;;6240888;28;83588;-69
2021/03/08 10:31:26;;;;;;;108.53;30.50;;;24.20;36.70;;;;;;6242718;27;85444;-68
2021/03/08 10:34:27;;;;;;;95.22;29.90;;;24.20;37.40;;;;;;6238408;28;83783;-69
2021/03/08 10:37:27;;;;;;;93.15;26.65;;;24.20;38.70;;;;;;6234987;28;83342;-68
2021/03/08 10:40:28;;;;;;;86.22;26.63;;;24.20;38.70;;;;;;6235549;28;83058;-67
2021/03/08 10:43:28;;;;;;;90.05;24.98;;;24.20;40.40;;;;;;6240137;28;83853;-68
2021/03/08 10:46:29;;;;;;;87.65;25.73;;;24.20;42.40;;;;;;6245322;27;83117;-65
2021/03/08 10:49:29;;;;;;;80.95;22.77;;;24.20;39.30;;;;;;6249270;27;91361;-65
2021/03/08 10:52:30;;;;;;;71.47;21.10;;;24.20;36.30;;;;;;6216032;28;84020;-65
2021/03/08 10:55:30;;;;;;;63.45;19.35;;;24.20;35.50;;;;;;6230322;28;84298;-70
2021/03/08 10:58:31;;;;;;;52.25;17.08;;;24.20;36.60;;;;;;6214941;28;83046;-69
2021/03/08 11:01:32;;;;;;;53.97;15.32;;;24.20;34.50;;;;;;6245798;28;83759;-69
2021/03/08 11:04:32;;;;;;;43.25;14.63;;;24.10;34.30;;;;;;6240325;28;85625;-68
2021/03/08 11:07:33;;;;;;;43.30;14.73;;;24.10;33.90;;;;;;6235313;28;83133;-69
2021/03/08 11:10:33;;;;;;;33.65;11.57;;;24.10;33.60;;;;;;6242240;28;83759;-68
2021/03/08 11:13:34;;;;;;;41.17;12.48;;;24.10;33.20;;;;;;6234719;28;83871;-67
2021/03/08 11:16:34;;;;;;;37.55;12.50;;;24.20;33.40;;;;;;6224640;28;91739;-68
2021/03/08 11:19:35;;;;;;;34.85;11.77;;;24.20;32.90;;;;;;6231980;28;83373;-69
2021/03/08 11:22:35;;;;;;;31.13;11.65;;;24.20;32.70;;;;;;6243510;27;85942;-66
2021/03/08 11:25:36;;;;;;;30.45;11.63;;;24.20;33.60;;;;;;6240727;28;83718;-67
2021/03/08 11:28:37;;;;;;;28.98;9.85;;;24.20;34.40;;;;;;6245448;28;83568;-65
2021/03/08 11:31:37;;;;;;;25.50;9.63;;;24.20;33.30;;;;;;6246338;28;83583;-68
2021/03/08 11:34:38;;;;;;;33.22;10.23;;;24.20;33.70;;;;;;6245517;28;80827;-65
2021/03/08 11:37:38;;;;;;;28.40;9.25;;;24.20;34.10;;;;;;6235465;28;83581;-65
2021/03/08 11:40:39;;;;;;;25.90;9.02;;;24.20;34.10;;;;;;6241194;28;84154;-67
2021/03/08 11:43:39;;;;;;;20.88;8.07;;;24.30;34.10;;;;;;6219876;28;83708;-65
2021/03/08 11:46:40;;;;;;;28.48;8.18;;;24.30;33.80;;;;;;6251690;28;80761;-68
2021/03/08 11:49:40;;;;;;;21.45;8.57;;;24.30;33.60;;;;;;6252740;28;81020;-66
2021/03/08 11:52:41;;;;;;;17.42;7.68;;;24.30;33.20;;;;;;6248211;28;82328;-67
2021/03/08 11:55:41;;;;;;;24.58;8.13;;;24.30;32.40;;;;;;6253162;28;81495;-66
2021/03/08 11:58:42;;;;;;;19.25;7.20;;;24.20;32.50;;;;;;6237559;27;81697;-67
2021/03/08 12:01:42;;;;;;;23.55;8.65;;;24.20;32.10;;;;;;6245303;27;80807;-66
2021/03/08 12:04:43;;;;;;;21.88;8.07;;;24.20;32.70;;;;;;6214981;28;80852;-67
2021/03/08 12:07:43;;;;;;;13.63;6.47;;;24.30;32.90;;;;;;6248476;28;80808;-67
2021/03/08 12:10:44;;;;;;;20.58;8.20;;;24.30;32.30;;;;;;6237155;28;81664;-67
2021/03/08 12:13:44;;;;;;;19.30;7.22;;;24.30;32.20;;;;;;6236425;28;80936;-68
2021/03/08 12:16:45;;;;;;;16.45;6.85;;;24.30;32.00;;;;;;6244027;28;81637;-67
2021/03/08 12:19:45;;;;;;;19.55;7.53;;;24.30;32.40;;;;;;6238441;28;80755;-68
2021/03/08 12:22:46;;;;;;;15.18;6.68;;;24.30;33.10;;;;;;6243826;27;81586;-67
2021/03/08 12:25:46;;;;;;;13.77;6.75;;;24.20;32.50;;;;;;6237694;28;81515;-67
2021/03/08 12:28:47;;;;;;;15.02;6.65;;;24.20;32.80;;;;;;6245306;28;80859;-67
2021/03/08 12:31:47;;;;;;;13.02;6.63;;;24.30;31.70;;;;;;6240737;27;80855;-68
2021/03/08 12:34:48;;;;;;;13.50;6.13;;;24.20;32.00;;;;;;6246615;27;81188;-67
2021/03/08 12:37:48;;;;;;;11.18;5.85;;;24.20;31.60;;;;;;6228120;28;80501;-67
2021/03/08 12:40:49;;;;;;;16.55;6.90;;;24.20;31.00;;;;;;6237946;27;80624;-68
2021/03/08 12:43:49;;;;;;;10.20;5.78;;;24.20;31.40;;;;;;6246926;27;88394;-68
2021/03/08 12:46:50;;;;;;;9.15;5.53;;;24.30;30.60;;;;;;6243409;27;82747;-67
2021/03/08 12:49:50;;;;;;;12.32;6.55;;;24.30;31.40;;;;;;6242220;27;87667;-66
2021/03/08 12:52:51;;;;;;;12.27;6.10;;;24.30;32.10;;;;;;6231873;27;80717;-68
2021/03/08 12:55:51;;;;;;;10.88;5.57;;;24.30;31.30;;;;;;6244892;27;84128;-66
2021/03/08 12:58:52;;;;;;;13.75;5.13;;;24.30;31.50;;;;;;6244128;27;80763;-67
2021/03/08 13:01:52;;;;;;;10.20;4.65;;;24.20;30.60;;;;;;6240603;27;80766;-67
2021/03/08 13:04:53;;;;;;;13.45;4.80;;;24.20;30.50;;;;;;6229974;27;80468;-69
2021/03/08 13:07:54;;;;;;;11.45;5.72;;;24.20;30.30;;;;;;6240783;27;80575;-68
2021/03/08 13:10:54;;;;;;;16.27;4.80;;;24.20;30.50;;;;;;6226576;27;81176;-69
2021/03/08 13:13:55;;;;;;;9.38;4.32;;;24.20;30.50;;;;;;6243586;27;80725;-69
2021/03/08 13:16:55;;;;;;;12.15;4.65;;;24.20;30.00;;;;;;6255316;27;80759;-70
2021/03/08 13:19:56;;;;;;;13.70;4.97;;;24.20;30.00;;;;;;6248153;27;81220;-67
2021/03/08 13:22:57;;;;;;;7.82;3.85;;;24.20;30.00;;;;;;6240406;27;80395;-68
2021/03/08 13:25:58;;;;;;;8.85;4.32;;;24.20;29.90;;;;;;6244798;27;81226;-67
2021/03/08 13:28:58;;;;;;;8.52;4.05;;;24.20;29.80;;;;;;6248659;27;82010;-67
2021/03/08 13:31:59;;;;;;;7.25;3.50;;;24.20;29.70;;;;;;6223581;28;83224;-68
2021/03/08 13:35:00;;;;;;;7.43;3.83;;;24.10;29.40;;;;;;6248588;27;84508;-68
2021/03/08 13:38:00;;;;;;;6.40;3.45;;;24.10;29.40;;;;;;6247166;27;81620;-66
2021/03/08 13:41:01;;;;;;;7.00;3.30;;;24.10;29.40;;;;;;6243601;27;82843;-65
2021/03/08 13:44:01;;;;;;;10.00;4.03;;;24.10;29.40;;;;;;6245868;27;80634;-64
2021/03/08 13:47:02;;;;;;;5.95;3.20;;;24.10;29.10;;;;;;6246189;27;80839;-66
2021/03/08 13:50:02;;;;;;;5.88;3.20;;;24.10;29.00;;;;;;6247156;27;80697;-65
2021/03/08 13:53:03;;;;;;;6.13;3.20;;;24.10;29.00;;;;;;6248818;28;81635;-65
2021/03/08 13:56:03;;;;;;;5.75;3.33;;;24.10;30.00;;;;;;6247076;28;81634;-66
2021/03/08 13:59:04;;;;;;;4.65;2.80;;;24.10;29.60;;;;;;6248253;28;81611;-69
2021/03/08 14:02:04;;;;;;;8.90;3.33;;;24.10;29.90;;;;;;6236348;28;82521;-68
2021/03/08 14:05:05;;;;;;;3.88;2.50;;;24.00;29.60;;;;;;6238238;28;80823;-67
2021/03/08 14:08:06;;;;;;;4.78;2.65;;;24.00;29.80;;;;;;6232937;28;81067;-67
2021/03/08 14:11:06;;;;;;;5.03;2.80;;;24.00;29.20;;;;;;6244266;28;80662;-67
2021/03/08 14:14:07;;;;;;;4.15;2.70;;;24.00;29.60;;;;;;6220261;28;81875;-69
2021/03/08 14:17:07;;;;;;;4.85;2.60;;;24.00;29.40;;;;;;6244432;27;80403;-69
2021/03/08 14:20:08;;;;;;;4.55;2.63;;;24.00;29.50;;;;;;6210821;28;80802;-68
2021/03/08 14:23:08;;;;;;;6.68;3.75;;;24.00;29.40;;;;;;6232021;28;80874;-69
2021/03/08 14:26:09;;;;;;;4.35;2.50;;;24.10;29.70;;;;;;6248827;28;80798;-69
2021/03/08 14:29:10;;;;;;;5.55;2.95;;;24.00;29.60;;;;;;6253392;28;80710;-69
2021/03/08 14:32:15;;;;;;;8.30;3.25;;;24.10;30.00;;;;;;6252229;28;82250;-70
2021/03/08 14:35:16;;;;;;;;;;;24.00;30.40;;;;;;6250864;28;80951;-71
2021/03/08 14:38:18;;;;;;;6.25;3.38;;;23.90;30.00;;;;;;6256407;28;80263;-71
2021/03/08 14:41:18;;;;;;;7.82;2.60;;;23.90;30.10;;;;;;6226569;28;81350;-72
2021/03/08 14:44:22;;;;;;;7.18;3.28;;;24.00;30.30;;;;;;6226786;27;81330;-69
2021/03/08 14:47:23;;;;;;;6.82;2.42;;;24.00;30.20;;;;;;6250483;28;80895;-69
2021/03/08 14:50:23;;;;;;;7.95;2.88;;;24.00;31.30;;;;;;6249128;28;81063;-68
2021/03/08 14:53:24;;;;;;;3.97;2.42;;;24.00;30.10;;;;;;6238436;28;80277;-68
2021/03/08 14:56:24;;;;;;;12.02;3.25;;;24.00;30.90;;;;;;6235560;28;81357;-72
2021/03/08 14:59:25;;;;;;;7.85;2.85;;;24.00;30.80;;;;;;6227804;28;80606;-71
2021/03/08 15:02:25;;;;;;;6.30;2.60;;;24.00;30.80;;;;;;6246096;28;81197;-74
2021/03/08 15:05:26;;;;;;;4.57;2.60;;;24.00;31.50;;;;;;6248299;28;80829;-73
2021/03/08 15:08:30;;;;;;;5.53;2.90;;;24.00;29.70;;;;;;6239876;27;81605;-73
2021/03/08 15:11:30;;;;;;;9.73;2.72;;;24.00;30.10;;;;;;6239604;28;81586;-73
2021/03/08 15:14:31;;;;;;;6.80;2.95;;;23.90;28.90;;;;;;6245707;28;80663;-71
2021/03/08 15:17:31;;;;;;;3.70;2.78;;;23.90;29.20;;;;;;6249642;28;80671;-72
2021/03/08 15:20:32;;;;;;;5.72;2.67;;;23.90;29.50;;;;;;6249934;28;80735;-73